Time;durP1;ratioP1;P1;durP2;ratioP2;P2;SDS_P1;SDS_P2;PMS_P1;PMS_P2;Temp;Humidity;BMP_temperature;BMP_pressure;BME280_temperature;BME280_humidity;BME280_pressure;Samples;Min_cycle;Max_cycle;Signal;HPM_P1;HPM_P2
2023/07/12 00:01:21;;;;;;;146.00;141.10;;;18.90;99.90;;;;;;4990483;28;20214;-86
2023/07/12 00:03:47;;;;;;;153.60;148.63;;;18.90;99.90;;;;;;4988944;28;20226;-85
2023/07/12 00:06:17;;;;;;;160.43;155.13;;;18.90;99.90;;;;;;5004674;28;20242;-85
2023/07/12 00:08:43;;;;;;;140.27;135.90;;;18.90;99.90;;;;;;5035089;28;20227;-85
2023/07/12 00:11:21;;;;;;;140.63;136.07;;;18.90;99.90;;;;;;4987063;28;20269;-85
2023/07/12 00:13:48;;;;;;;190.07;184.30;;;18.90;99.90;;;;;;5004592;28;20580;-85
2023/07/12 00:16:24;;;;;;;135.70;131.37;;;18.90;99.90;;;;;;5005002;28;20824;-86
2023/07/12 00:18:51;;;;;;;185.47;179.47;;;18.80;99.90;;;;;;5005866;28;20300;-86
2023/07/12 00:21:24;;;;;;;126.90;123.00;;;18.80;99.90;;;;;;5009086;28;20688;-85
2023/07/12 00:23:55;;;;;;;158.27;153.53;;;18.80;99.90;;;;;;5008132;28;20727;-85
2023/07/12 00:26:35;;;;;;;132.90;128.60;;;18.80;99.90;;;;;;5006296;28;20884;-86
2023/07/12 00:29:04;;;;;;;120.07;116.40;;;18.80;99.90;;;;;;5034264;28;20254;-86
2023/07/12 00:31:30;;;;;;;119.57;115.93;;;18.80;99.90;;;;;;5005840;28;20648;-85
2023/07/12 00:33:56;;;;;;;122.40;118.37;;;18.80;99.90;;;;;;5006244;28;20273;-85
2023/07/12 00:36:23;;;;;;;122.53;118.33;;;18.70;99.90;;;;;;4992571;28;20713;-85
2023/07/12 00:38:50;;;;;;;152.43;147.73;;;18.70;99.90;;;;;;5015013;28;20734;-86
2023/07/12 00:41:45;;;;;;;130.07;125.57;;;18.60;99.90;;;;;;4984045;28;20716;-85
2023/07/12 00:44:17;;;;;;;119.17;114.87;;;18.60;99.90;;;;;;4981455;28;20231;-85
2023/07/12 00:46:53;;;;;;;117.17;113.30;;;18.60;99.90;;;;;;5008995;28;20698;-85
2023/07/12 00:49:19;;;;;;;129.93;125.80;;;18.60;99.90;;;;;;5005458;28;20249;-86
2023/07/12 00:51:48;;;;;;;116.47;112.67;;;18.50;99.90;;;;;;5032719;28;20693;-87
2023/07/12 00:54:17;;;;;;;115.83;112.03;;;18.50;99.90;;;;;;5005959;28;20230;-86
2023/07/12 00:56:43;;;;;;;107.20;103.73;;;18.50;99.90;;;;;;5002510;28;20565;-85
2023/07/12 00:59:29;;;;;;;209.53;203.00;;;18.40;99.90;;;;;;5004797;28;20246;-86
2023/07/12 01:02:00;;;;;;;101.17;97.77;;;18.40;99.90;;;;;;5012728;28;20711;-86
2023/07/12 01:04:32;;;;;;;114.40;110.57;;;18.40;99.90;;;;;;5003978;28;20184;-85
2023/07/12 01:06:58;;;;;;;128.10;124.07;;;18.40;99.90;;;;;;5008986;28;20215;-85
2023/07/12 01:09:26;;;;;;;137.33;133.07;;;18.30;99.90;;;;;;5005674;28;20255;-85
2023/07/12 01:11:56;;;;;;;117.90;114.10;;;18.40;99.90;;;;;;5005430;28;20231;-86
2023/07/12 01:14:21;;;;;;;119.20;115.50;;;18.40;99.90;;;;;;5006188;28;20746;-86
2023/07/12 01:17:02;;;;;;;108.60;105.00;;;18.40;99.90;;;;;;5004097;28;20187;-85
2023/07/12 01:19:29;;;;;;;146.43;141.87;;;18.50;99.90;;;;;;5004694;28;20411;-86
2023/07/12 01:21:56;;;;;;;107.03;103.37;;;18.40;99.90;;;;;;4990549;28;20954;-85
2023/07/12 01:24:24;;;;;;;176.93;171.50;;;18.40;99.90;;;;;;4989280;28;20270;-85
2023/07/12 01:26:53;;;;;;;109.20;105.67;;;18.40;99.90;;;;;;5002397;28;20219;-86
2023/07/12 01:29:20;;;;;;;118.77;114.83;;;18.40;99.90;;;;;;5005522;28;20271;-85
2023/07/12 01:31:46;;;;;;;128.20;124.30;;;18.40;99.90;;;;;;5004853;28;20214;-86
2023/07/12 01:34:13;;;;;;;114.20;110.70;;;18.30;99.90;;;;;;4986713;28;20187;-86
2023/07/12 01:36:39;;;;;;;114.10;110.50;;;18.30;99.90;;;;;;4985052;28;20222;-86
2023/07/12 01:39:05;;;;;;;116.00;112.20;;;18.30;99.90;;;;;;4986579;28;20223;-84
2023/07/12 01:41:32;;;;;;;119.40;115.70;;;18.30;99.90;;;;;;5001992;28;20235;-86
2023/07/12 01:43:58;;;;;;;124.43;120.60;;;18.30;99.90;;;;;;5007795;28;20226;-86
2023/07/12 01:46:24;;;;;;;114.13;110.43;;;18.30;99.90;;;;;;4986583;28;20191;-85
2023/07/12 01:48:50;;;;;;;114.53;110.23;;;18.30;99.90;;;;;;5007853;28;20470;-85
2023/07/12 01:51:17;;;;;;;115.07;111.50;;;18.30;99.90;;;;;;5005457;28;20273;-85
2023/07/12 01:53:43;;;;;;;138.93;134.13;;;18.30;99.90;;;;;;5003850;28;20242;-86
2023/07/12 01:56:09;;;;;;;133.37;129.03;;;18.30;99.90;;;;;;4986974;28;20250;-86
2023/07/12 01:58:35;;;;;;;113.60;109.63;;;18.40;99.90;;;;;;5004094;28;20683;-85
2023/07/12 02:01:01;;;;;;;120.57;116.60;;;18.40;99.90;;;;;;5005689;28;20238;-84
2023/07/12 02:03:27;;;;;;;113.00;109.27;;;18.40;99.90;;;;;;5005149;28;20689;-86
2023/07/12 02:05:53;;;;;;;133.90;128.37;;;18.50;99.90;;;;;;5005483;28;20215;-84
2023/07/12 02:08:19;;;;;;;116.07;111.93;;;18.50;99.90;;;;;;4987406;28;20720;-84
2023/07/12 02:10:46;;;;;;;115.40;111.63;;;18.40;99.90;;;;;;5002047;28;20195;-85
2023/07/12 02:13:12;;;;;;;125.63;121.47;;;18.40;99.90;;;;;;5004088;28;20195;-85
2023/07/12 02:15:37;;;;;;;134.17;129.27;;;18.40;99.90;;;;;;5003778;28;20211;-85
2023/07/12 02:18:04;;;;;;;120.47;116.13;;;18.40;99.90;;;;;;5006137;28;20219;-85
2023/07/12 02:20:30;;;;;;;175.97;170.07;;;18.40;99.90;;;;;;5002919;28;20238;-85
2023/07/12 02:22:56;;;;;;;130.07;125.83;;;18.40;99.90;;;;;;4985785;28;20242;-86
2023/07/12 02:25:21;;;;;;;123.80;119.83;;;18.40;99.90;;;;;;5006008;28;20190;-85
2023/07/12 02:27:48;;;;;;;161.57;156.50;;;18.40;99.90;;;;;;4988956;28;20234;-85
2023/07/12 02:30:17;;;;;;;129.07;124.47;;;18.40;99.90;;;;;;5004149;28;20233;-86
2023/07/12 02:32:44;;;;;;;124.83;120.60;;;18.40;99.90;;;;;;5000092;28;20394;-86
2023/07/12 02:35:10;;;;;;;120.80;116.20;;;18.40;99.90;;;;;;5002167;28;20692;-85
2023/07/12 02:37:36;;;;;;;120.40;116.17;;;18.40;99.90;;;;;;5000638;28;20415;-83
2023/07/12 02:40:04;;;;;;;140.93;136.07;;;18.40;99.90;;;;;;5003266;28;20282;-85
2023/07/12 02:42:30;;;;;;;130.33;126.10;;;18.40;99.90;;;;;;4991868;28;20230;-85
2023/07/12 02:44:56;;;;;;;127.93;123.53;;;18.30;99.90;;;;;;5003944;28;20218;-84
2023/07/12 02:47:22;;;;;;;138.43;133.83;;;18.30;99.90;;;;;;5001026;28;20635;-86
2023/07/12 02:49:48;;;;;;;149.87;145.03;;;18.30;99.90;;;;;;5004449;28;20223;-86
2023/07/12 02:52:14;;;;;;;123.73;119.67;;;18.20;99.90;;;;;;5002633;28;20707;-86
2023/07/12 02:54:39;;;;;;;127.63;122.50;;;18.20;99.90;;;;;;5002660;28;20575;-85
2023/07/12 02:57:09;;;;;;;120.87;116.70;;;18.20;99.90;;;;;;5003582;28;20597;-82
2023/07/12 02:59:35;;;;;;;120.30;116.47;;;18.20;99.90;;;;;;5005389;28;20223;-82
2023/07/12 03:02:01;;;;;;;118.90;114.73;;;18.20;99.90;;;;;;4986932;28;20775;-85
2023/07/12 03:04:26;;;;;;;117.00;112.70;;;18.20;99.90;;;;;;4993574;28;20231;-85
2023/07/12 03:06:52;;;;;;;132.90;128.27;;;18.10;99.90;;;;;;4988431;28;20226;-84
2023/07/12 03:09:18;;;;;;;140.77;135.23;;;18.10;99.90;;;;;;4984134;28;20219;-84
2023/07/12 03:11:46;;;;;;;154.60;149.70;;;18.10;99.90;;;;;;4987912;28;20906;-83
2023/07/12 03:14:13;;;;;;;118.60;113.90;;;18.10;99.90;;;;;;4985223;28;20230;-85
2023/07/12 03:16:39;;;;;;;118.00;113.83;;;18.10;99.90;;;;;;4990877;28;20218;-85
2023/07/12 03:19:04;;;;;;;125.03;120.83;;;18.20;99.90;;;;;;5002135;28;20591;-85
2023/07/12 03:21:30;;;;;;;142.90;138.23;;;18.20;99.90;;;;;;5003476;28;20239;-84
2023/07/12 03:23:56;;;;;;;375.50;361.43;;;18.30;99.90;;;;;;5006282;28;20261;-84
2023/07/12 03:26:23;;;;;;;122.70;118.83;;;18.30;99.90;;;;;;4992808;28;20227;-84
2023/07/12 03:28:49;;;;;;;129.90;125.57;;;18.20;99.90;;;;;;5010732;28;20286;-84
2023/07/12 03:31:16;;;;;;;132.63;128.53;;;18.30;99.90;;;;;;5006022;28;20225;-84
2023/07/12 03:33:44;;;;;;;173.90;167.40;;;18.30;99.90;;;;;;5008011;28;20318;-86
2023/07/12 03:36:10;;;;;;;126.77;122.60;;;18.20;99.90;;;;;;5010091;28;20230;-86
2023/07/12 03:38:36;;;;;;;118.50;114.27;;;18.20;99.90;;;;;;5006752;28;20302;-84
2023/07/12 03:41:04;;;;;;;123.80;119.70;;;18.20;99.90;;;;;;4992042;28;20510;-85
2023/07/12 03:43:31;;;;;;;118.57;114.87;;;18.20;99.90;;;;;;5010048;28;20189;-85
2023/07/12 03:45:57;;;;;;;123.53;119.53;;;18.20;99.90;;;;;;5009992;28;20211;-85
2023/07/12 03:48:23;;;;;;;120.03;116.00;;;18.20;99.90;;;;;;5009820;28;20227;-86
2023/07/12 03:50:51;;;;;;;118.50;114.53;;;18.30;99.90;;;;;;5010283;28;20227;-86
2023/07/12 03:53:18;;;;;;;117.30;113.37;;;18.30;99.90;;;;;;5008003;28;20235;-84
2023/07/12 03:55:46;;;;;;;136.83;132.23;;;18.30;99.90;;;;;;5010020;28;20183;-84
2023/07/12 03:58:19;;;;;;;111.33;107.63;;;18.30;99.90;;;;;;5007759;28;20661;-86
2023/07/12 04:00:49;;;;;;;111.13;107.47;;;18.30;99.90;;;;;;5005876;28;20801;-86
2023/07/12 04:03:17;;;;;;;118.37;114.53;;;18.30;99.90;;;;;;5008377;28;20226;-85
2023/07/12 04:05:43;;;;;;;105.77;101.77;;;18.40;99.90;;;;;;5010821;28;20227;-84
2023/07/12 04:08:11;;;;;;;105.37;101.37;;;18.40;99.90;;;;;;5004324;28;20513;-84
2023/07/12 04:10:37;;;;;;;115.10;111.27;;;18.50;99.90;;;;;;5006634;28;20191;-84
2023/07/12 04:13:04;;;;;;;124.30;119.83;;;18.50;99.90;;;;;;5010309;28;20229;-84
2023/07/12 04:15:30;;;;;;;131.73;127.07;;;18.50;99.90;;;;;;5002383;28;20692;-85
2023/07/12 04:17:56;;;;;;;111.37;107.77;;;18.50;99.90;;;;;;5003246;28;20215;-85
2023/07/12 04:20:22;;;;;;;159.60;154.23;;;18.50;99.90;;;;;;4983707;28;20231;-84
2023/07/12 04:22:52;;;;;;;197.53;190.90;;;18.50;99.90;;;;;;4987368;28;20239;-84
2023/07/12 04:25:19;;;;;;;117.30;113.20;;;18.40;99.90;;;;;;4986470;28;20190;-85
2023/07/12 04:27:45;;;;;;;113.27;109.37;;;18.40;99.90;;;;;;4969880;28;20219;-85
2023/07/12 04:30:13;;;;;;;187.60;181.40;;;18.50;99.90;;;;;;4984795;28;20349;-85
2023/07/12 04:32:39;;;;;;;124.90;120.63;;;18.50;99.90;;;;;;4984582;28;20232;-84
2023/07/12 04:35:05;;;;;;;102.47;98.97;;;18.60;99.90;;;;;;4970094;28;20228;-85
2023/07/12 04:37:31;;;;;;;172.97;167.47;;;18.60;99.90;;;;;;4965806;28;20603;-84
2023/07/12 04:39:57;;;;;;;115.80;111.97;;;18.70;99.90;;;;;;4987022;28;20681;-85
2023/07/12 04:42:23;;;;;;;166.27;161.13;;;18.80;99.90;;;;;;4968649;28;20247;-85
2023/07/12 04:44:49;;;;;;;158.43;153.00;;;18.80;99.90;;;;;;4949614;28;20327;-85
2023/07/12 04:47:16;;;;;;;94.23;90.87;;;18.80;99.90;;;;;;4939119;28;20237;-85
2023/07/12 04:49:43;;;;;;;88.47;85.47;;;18.90;99.90;;;;;;4968192;28;20188;-86
2023/07/12 04:52:11;;;;;;;90.33;87.13;;;19.10;99.90;;;;;;4971658;28;20188;-86
2023/07/12 04:54:45;;;;;;;88.83;85.50;;;19.10;99.90;;;;;;4984338;28;20508;-85
2023/07/12 04:57:11;;;;;;;127.93;123.73;;;19.20;99.90;;;;;;4986774;28;20777;-85
2023/07/12 04:59:37;;;;;;;139.13;134.40;;;19.40;99.90;;;;;;4973595;28;20314;-85
2023/07/12 05:02:03;;;;;;;118.53;114.40;;;19.50;99.90;;;;;;4956060;28;20243;-85
2023/07/12 05:04:28;;;;;;;112.47;108.07;;;19.60;99.90;;;;;;4953345;28;20625;-84
2023/07/12 05:06:54;;;;;;;105.77;101.63;;;19.60;99.90;;;;;;4984432;28;20220;-85
2023/07/12 05:09:20;;;;;;;102.33;98.67;;;19.80;99.90;;;;;;4950202;28;20631;-84
2023/07/12 05:11:50;;;;;;;109.23;105.57;;;19.80;99.90;;;;;;4945421;28;20231;-85
2023/07/12 05:14:16;;;;;;;115.87;111.80;;;19.70;99.90;;;;;;4986527;28;20395;-85
2023/07/12 05:16:41;;;;;;;115.90;112.07;;;19.50;99.90;;;;;;4966642;28;20200;-84
2023/07/12 05:19:07;;;;;;;120.77;116.20;;;19.50;99.90;;;;;;4989702;28;20713;-84
2023/07/12 05:21:33;;;;;;;117.67;113.77;;;19.50;99.90;;;;;;4967516;28;20235;-83
2023/07/12 05:23:59;;;;;;;121.40;116.93;;;19.50;99.90;;;;;;4991007;28;20238;-84
2023/07/12 05:26:25;;;;;;;139.80;134.57;;;19.70;99.90;;;;;;5004949;28;20795;-85
2023/07/12 05:28:50;;;;;;;135.03;130.40;;;19.80;99.90;;;;;;5002247;28;20184;-86
2023/07/12 05:31:16;;;;;;;148.33;142.73;;;19.90;99.90;;;;;;4992424;28;20198;-84
2023/07/12 05:33:46;;;;;;;135.80;130.83;;;20.40;99.90;;;;;;4985274;28;20325;-85
2023/07/12 05:36:15;;;;;;;188.93;182.87;;;20.40;99.90;;;;;;5007932;28;20227;-85
2023/07/12 05:38:41;;;;;;;134.97;130.60;;;21.30;99.90;;;;;;5003343;28;20256;-86
2023/07/12 05:41:07;;;;;;;147.47;142.27;;;21.20;99.90;;;;;;5001023;28;20238;-86
2023/07/12 05:43:34;;;;;;;134.43;129.40;;;20.50;99.90;;;;;;5002492;28;20180;-84
2023/07/12 05:46:00;;;;;;;144.30;139.67;;;19.90;99.90;;;;;;4986277;28;20276;-85
2023/07/12 05:48:26;;;;;;;146.13;140.70;;;19.70;99.90;;;;;;5004310;28;20334;-85
2023/07/12 05:50:56;;;;;;;134.53;130.00;;;19.60;99.90;;;;;;4986496;28;20720;-85
2023/07/12 05:53:21;;;;;;;126.97;122.33;;;19.40;99.90;;;;;;5004480;28;20731;-84
2023/07/12 05:55:53;;;;;;;144.50;140.03;;;19.20;99.90;;;;;;4985032;28;20200;-85
2023/07/12 05:58:18;;;;;;;141.40;136.83;;;19.20;99.90;;;;;;5004879;28;20953;-84
2023/07/12 06:00:44;;;;;;;155.20;150.10;;;19.30;99.90;;;;;;4988580;28;20235;-84
2023/07/12 06:03:11;;;;;;;152.07;146.70;;;19.40;99.90;;;;;;4983981;28;20247;-85
2023/07/12 06:05:41;;;;;;;150.47;145.77;;;19.50;99.90;;;;;;4992128;28;20309;-86
2023/07/12 06:08:07;;;;;;;159.40;154.23;;;19.50;99.90;;;;;;5005984;28;20216;-86
2023/07/12 06:10:33;;;;;;;167.07;161.07;;;19.40;99.90;;;;;;5000318;28;20191;-86
2023/07/12 06:12:59;;;;;;;194.83;188.03;;;19.60;99.90;;;;;;5003040;28;20288;-87
2023/07/12 06:15:25;;;;;;;171.80;165.83;;;19.80;99.90;;;;;;5006723;28;20223;-87
2023/07/12 06:17:51;;;;;;;163.03;157.80;;;20.60;99.90;;;;;;5008021;28;20252;-87
2023/07/12 06:20:16;;;;;;;158.27;153.17;;;20.80;99.90;;;;;;5004613;28;20924;-86
2023/07/12 06:22:42;;;;;;;141.53;136.77;;;20.80;99.90;;;;;;4989947;28;20253;-87
2023/07/12 06:25:10;;;;;;;148.33;143.37;;;20.60;99.90;;;;;;5005087;28;20183;-86
2023/07/12 06:27:35;;;;;;;157.93;152.73;;;20.60;99.90;;;;;;4984591;28;20504;-86
2023/07/12 06:30:02;;;;;;;203.13;196.77;;;20.50;99.90;;;;;;4976278;28;20224;-86
2023/07/12 06:32:31;;;;;;;165.67;159.80;;;20.60;99.90;;;;;;4984510;28;20220;-86
2023/07/12 06:34:56;;;;;;;185.10;179.20;;;20.40;99.90;;;;;;4988748;28;20227;-86
2023/07/12 06:37:22;;;;;;;168.63;163.20;;;19.80;99.90;;;;;;4985007;28;20191;-85
2023/07/12 06:39:48;;;;;;;153.57;148.57;;;19.60;99.90;;;;;;4985171;28;20219;-86
2023/07/12 06:42:14;;;;;;;158.17;152.43;;;19.60;99.90;;;;;;4984646;28;20282;-86
2023/07/12 06:44:40;;;;;;;177.77;171.93;;;19.60;99.90;;;;;;4979050;28;20224;-86
2023/07/12 06:47:09;;;;;;;150.33;145.53;;;19.50;99.90;;;;;;4963788;28;20591;-85
2023/07/12 06:49:34;;;;;;;176.93;171.17;;;19.30;99.90;;;;;;4980554;28;20215;-86
2023/07/12 06:52:02;;;;;;;215.27;208.37;;;19.50;99.90;;;;;;4947881;28;20219;-85
2023/07/12 06:54:28;;;;;;;186.47;179.87;;;21.10;99.90;;;;;;4978608;28;20255;-85
2023/07/12 06:56:54;;;;;;;145.63;140.60;;;21.60;99.90;;;;;;4977751;28;20257;-84
2023/07/12 06:59:21;;;;;;;175.70;170.10;;;21.00;99.90;;;;;;4963184;28;20632;-85
2023/07/12 07:01:47;;;;;;;254.23;245.70;;;20.20;99.90;;;;;;4983559;28;20208;-85
2023/07/12 07:04:13;;;;;;;218.57;211.50;;;19.60;99.90;;;;;;4982841;28;20196;-84
2023/07/12 07:06:39;;;;;;;164.23;159.33;;;19.30;99.90;;;;;;4980994;28;20234;-84
2023/07/12 07:09:05;;;;;;;206.93;199.53;;;19.30;99.90;;;;;;4971466;28;20539;-85
2023/07/12 07:11:31;;;;;;;153.20;148.23;;;19.30;99.90;;;;;;4968255;28;20302;-85
2023/07/12 07:13:56;;;;;;;165.60;160.47;;;19.30;99.90;;;;;;4952395;28;20228;-84
2023/07/12 07:16:22;;;;;;;195.57;189.73;;;19.50;99.90;;;;;;4969414;28;20196;-85
2023/07/12 07:18:49;;;;;;;175.57;170.03;;;21.00;99.90;;;;;;4971190;28;20219;-85
2023/07/12 07:21:15;;;;;;;160.77;155.60;;;22.30;99.90;;;;;;4968500;28;20231;-85
2023/07/12 07:23:40;;;;;;;124.97;120.60;;;23.80;99.90;;;;;;4974756;28;20235;-86
2023/07/12 07:26:09;;;;;;;110.78;107.15;;;23.90;99.90;;;;;;4999232;28;20231;-86
2023/07/12 07:28:39;;;;;;;99.47;96.15;;;22.90;99.90;;;;;;5000349;28;20184;-85
2023/07/12 07:31:08;;;;;;;104.00;100.63;;;22.20;99.90;;;;;;5009813;28;20258;-84
2023/07/12 07:33:39;;;;;;;98.17;94.80;;;22.20;99.90;;;;;;5009369;28;20226;-86
2023/07/12 07:36:11;;;;;;;101.53;98.15;;;22.90;99.90;;;;;;5008941;28;20226;-87
2023/07/12 07:38:37;;;;;;;129.50;125.60;;;22.30;99.90;;;;;;5008878;28;20230;-85
2023/07/12 07:41:10;;;;;;;141.63;137.20;;;21.00;99.90;;;;;;5005757;28;20278;-86
2023/07/12 07:43:39;;;;;;;122.77;118.63;;;20.40;99.90;;;;;;5020939;28;20219;-83
2023/07/12 07:46:34;;;;;;;110.57;106.87;;;19.90;99.90;;;;;;4982221;28;20202;-86
2023/07/12 07:49:16;;;;;;;155.83;150.83;;;19.80;99.90;;;;;;5008021;28;20215;-88
2023/07/12 07:51:44;;;;;;;144.63;140.03;;;19.80;99.90;;;;;;5020999;28;20727;-86
2023/07/12 07:54:10;;;;;;;152.30;147.43;;;20.20;99.90;;;;;;5011703;28;20659;-85
2023/07/12 07:56:41;;;;;;;154.37;149.27;;;20.40;99.90;;;;;;5011130;28;20569;-85
2023/07/12 07:59:09;;;;;;;209.97;203.30;;;21.00;99.90;;;;;;4991799;28;20231;-85
2023/07/12 08:01:38;;;;;;;130.40;126.07;;;21.90;99.90;;;;;;5009565;28;20328;-86
2023/07/12 08:04:04;;;;;;;116.57;112.70;;;23.40;99.90;;;;;;5009817;28;20215;-85
2023/07/12 08:06:30;;;;;;;103.75;100.13;;;24.10;99.90;;;;;;5006929;28;20226;-84
2023/07/12 08:08:56;;;;;;;107.25;103.75;;;25.20;99.90;;;;;;4991149;28;20694;-86
2023/07/12 08:11:21;;;;;;;120.35;116.60;;;25.20;99.90;;;;;;4991493;28;20595;-85
2023/07/12 08:13:47;;;;;;;143.23;138.55;;;26.00;99.90;;;;;;4974025;28;20662;-85
2023/07/12 08:16:14;;;;;;;123.72;119.85;;;25.70;99.90;;;;;;5004753;28;20187;-85
2023/07/12 08:18:42;;;;;;;121.55;117.55;;;24.10;99.90;;;;;;4987453;28;20223;-86
2023/07/12 08:21:13;;;;;;;115.15;111.18;;;23.70;99.90;;;;;;4980986;28;20242;-87
2023/07/12 08:23:39;;;;;;;120.45;116.65;;;25.20;99.90;;;;;;4994592;28;20577;-86
2023/07/12 08:26:05;;;;;;;128.23;124.28;;;25.50;99.90;;;;;;5006508;28;20219;-88
2023/07/12 08:28:30;;;;;;;123.47;119.68;;;25.20;99.90;;;;;;4990675;28;20194;-84
2023/07/12 08:30:56;;;;;;;122.55;118.78;;;24.40;99.90;;;;;;4987622;28;20216;-85
2023/07/12 08:33:22;;;;;;;117.95;114.15;;;24.40;99.90;;;;;;5001264;28;20496;-84
2023/07/12 08:35:48;;;;;;;127.22;123.28;;;24.10;99.90;;;;;;5005787;28;20219;-86
2023/07/12 08:38:13;;;;;;;98.85;95.82;;;23.70;99.90;;;;;;5005413;28;20701;-84
2023/07/12 08:40:44;;;;;;;117.07;113.45;;;24.30;99.90;;;;;;4989015;28;20274;-85
2023/07/12 08:43:15;;;;;;;104.97;101.57;;;23.80;99.90;;;;;;5008221;28;20188;-85
2023/07/12 08:45:43;;;;;;;111.03;107.63;;;23.90;99.90;;;;;;5009308;28;20608;-84
2023/07/12 08:48:19;;;;;;;98.63;95.63;;;22.90;99.90;;;;;;5004207;28;20230;-84
2023/07/12 08:50:47;;;;;;;112.07;108.30;;;24.50;99.90;;;;;;5008781;28;20233;-84
2023/07/12 08:53:24;;;;;;;111.78;108.25;;;25.90;99.90;;;;;;5002697;28;20289;-85
2023/07/12 08:55:52;;;;;;;100.78;97.40;;;26.20;99.90;;;;;;5005904;28;20635;-87
2023/07/12 08:58:26;;;;;;;94.88;91.68;;;25.60;99.90;;;;;;5004743;28;20202;-84
2023/07/12 09:01:05;;;;;;;95.93;92.93;;;24.50;99.90;;;;;;5005153;28;20648;-85
2023/07/12 09:03:31;;;;;;;96.57;92.93;;;23.70;99.90;;;;;;5002516;28;20746;-86
2023/07/12 09:05:57;;;;;;;103.22;100.03;;;22.70;99.90;;;;;;5007433;28;20219;-85
2023/07/12 09:08:37;;;;;;;103.68;99.97;;;21.70;99.90;;;;;;5004280;28;20227;-87
2023/07/12 09:11:16;;;;;;;104.55;101.25;;;21.40;99.90;;;;;;5005222;28;20235;-85
2023/07/12 09:13:44;;;;;;;108.05;104.65;;;22.70;99.90;;;;;;5005724;28;20175;-86
2023/07/12 09:16:23;;;;;;;152.75;147.43;;;22.80;99.90;;;;;;5006591;28;20721;-85
2023/07/12 09:18:52;;;;;;;111.38;107.47;;;22.80;99.90;;;;;;5006990;28;20222;-85
2023/07/12 09:21:32;;;;;;;102.05;98.72;;;22.60;99.90;;;;;;5007012;28;20261;-85
2023/07/12 09:24:14;;;;;;;136.73;132.40;;;22.00;99.90;;;;;;5005568;28;20308;-86
2023/07/12 09:26:42;;;;;;;99.15;95.97;;;22.40;99.90;;;;;;5008126;28;20261;-86
2023/07/12 09:29:31;;;;;;;99.82;96.63;;;23.40;99.90;;;;;;5006900;28;20272;-87
2023/07/12 09:32:10;;;;;;;138.65;134.27;;;23.40;99.90;;;;;;5007940;28;20309;-87
2023/07/12 09:34:40;;;;;;;141.55;137.07;;;23.80;99.90;;;;;;5004548;28;20190;-88
2023/07/12 09:37:17;;;;;;;105.15;102.00;;;24.10;99.90;;;;;;5007303;28;20642;-86
2023/07/12 09:40:01;;;;;;;98.70;95.70;;;24.20;99.90;;;;;;5006160;28;20225;-85
2023/07/12 09:42:30;;;;;;;105.28;101.78;;;24.20;99.90;;;;;;5004915;28;20234;-85
2023/07/12 09:44:58;;;;;;;98.70;95.40;;;25.30;99.90;;;;;;5002164;28;20877;-85
2023/07/12 09:47:41;;;;;;;95.05;91.93;;;25.50;99.90;;;;;;5006196;28;20251;-86
2023/07/12 09:50:26;;;;;;;99.90;96.63;;;24.30;99.90;;;;;;5001443;28;20227;-85
2023/07/12 09:53:05;;;;;;;92.70;89.88;;;23.30;99.90;;;;;;5020465;28;20269;-86
2023/07/12 09:55:51;;;;;;;102.13;99.00;;;23.30;99.90;;;;;;5006496;28;20187;-86
2023/07/12 09:58:39;;;;;;;89.75;86.97;;;23.10;99.90;;;;;;4995254;28;20272;-85
2023/07/12 10:01:19;;;;;;;90.15;87.35;;;24.00;99.90;;;;;;5002985;28;20231;-85
2023/07/12 10:03:52;;;;;;;103.88;100.78;;;24.80;99.90;;;;;;5006204;28;20221;-87
2023/07/12 10:06:44;;;;;;;96.18;93.07;;;23.90;99.90;;;;;;5007466;28;20225;-88
2023/07/12 10:09:14;;;;;;;95.07;92.07;;;23.60;99.90;;;;;;5006740;28;20277;-85
2023/07/12 10:11:44;;;;;;;94.75;91.82;;;24.20;99.90;;;;;;5021078;28;20219;-86
2023/07/12 10:14:15;;;;;;;97.45;94.50;;;23.80;99.90;;;;;;5001303;28;20231;-85
2023/07/12 10:16:51;;;;;;;102.00;98.88;;;24.10;99.90;;;;;;5000927;28;20192;-85
2023/07/12 10:19:34;;;;;;;128.90;124.72;;;23.60;99.90;;;;;;5006867;28;20210;-86
2023/07/12 10:22:04;;;;;;;94.35;91.15;;;23.50;99.90;;;;;;5004756;28;20239;-85
2023/07/12 10:24:52;;;;;;;96.05;93.05;;;24.00;99.90;;;;;;5007343;28;20251;-85
2023/07/12 10:27:26;;;;;;;94.95;91.95;;;24.80;99.90;;;;;;5001065;28;20271;-85
2023/07/12 10:29:58;;;;;;;106.18;102.93;;;24.90;99.90;;;;;;5003473;28;20218;-87
2023/07/12 10:32:29;;;;;;;100.63;97.63;;;24.20;99.90;;;;;;4997882;28;20223;-87
2023/07/12 10:35:10;;;;;;;100.32;97.28;;;23.60;99.90;;;;;;5001820;28;20192;-87
2023/07/12 10:37:58;;;;;;;92.65;89.85;;;24.40;99.90;;;;;;5006488;28;20522;-85
2023/07/12 10:40:29;;;;;;;94.80;91.95;;;25.20;99.90;;;;;;5014958;28;20249;-87
2023/07/12 10:42:59;;;;;;;88.78;85.97;;;24.80;99.90;;;;;;4968065;28;20314;-87
2023/07/12 10:45:30;;;;;;;90.72;87.72;;;24.90;99.90;;;;;;4969697;28;20223;-90
2023/07/12 10:47:58;;;;;;;90.05;87.00;;;24.60;99.90;;;;;;4977398;28;20222;-86
2023/07/12 10:50:35;;;;;;;98.13;95.10;;;24.20;99.90;;;;;;4987467;28;20277;-86
2023/07/12 10:53:11;;;;;;;95.80;92.82;;;24.50;99.90;;;;;;4999574;28;20229;-88
2023/07/12 10:55:49;;;;;;;87.72;85.03;;;24.40;99.90;;;;;;5000805;28;20195;-85
2023/07/12 10:58:25;;;;;;;90.20;87.35;;;25.10;99.90;;;;;;4990195;28;20185;-86
2023/07/12 11:00:55;;;;;;;82.72;80.22;;;26.30;99.90;;;;;;4969701;28;20338;-86
2023/07/12 11:03:47;;;;;;;70.25;67.95;;;26.40;99.90;;;;;;4955469;28;20216;-87
2023/07/12 11:06:25;;;;;;;70.43;68.07;;;26.10;99.90;;;;;;4974821;28;20218;-87
2023/07/12 11:09:00;;;;;;;77.07;74.63;;;24.90;99.90;;;;;;4998018;28;20226;-88
2023/07/12 11:11:50;;;;;;;79.50;77.00;;;24.30;99.90;;;;;;4997781;28;20230;-88
2023/07/12 11:14:18;;;;;;;84.00;81.45;;;23.50;99.90;;;;;;4987387;28;20223;-87
2023/07/12 11:16:48;;;;;;;94.13;91.28;;;22.70;99.90;;;;;;4979957;28;20198;-86
2023/07/12 11:19:33;;;;;;;99.53;96.45;;;22.60;99.90;;;;;;4980022;28;20188;-86
2023/07/12 11:22:11;;;;;;;103.15;99.95;;;23.00;99.90;;;;;;4983695;28;20327;-85
2023/07/12 11:24:41;;;;;;;98.18;95.28;;;23.70;99.90;;;;;;4978264;28;20240;-87
2023/07/12 11:27:25;;;;;;;98.03;94.93;;;24.00;99.90;;;;;;4979682;28;20224;-86
2023/07/12 11:29:54;;;;;;;102.47;99.38;;;24.10;99.90;;;;;;4995168;28;20234;-85
2023/07/12 11:32:36;;;;;;;99.88;96.53;;;24.40;99.90;;;;;;5002494;28;20655;-86
2023/07/12 11:35:24;;;;;;;99.18;96.05;;;23.50;99.90;;;;;;5004932;28;20223;-86
2023/07/12 11:37:58;;;;;;;104.05;100.72;;;24.00;99.90;;;;;;5021841;28;20198;-88
2023/07/12 11:40:30;;;;;;;100.65;97.60;;;23.50;99.90;;;;;;5008526;28;20175;-88
2023/07/12 11:43:15;;;;;;;104.20;101.00;;;23.10;99.90;;;;;;5002000;28;20342;-89
2023/07/12 11:45:43;;;;;;;101.57;98.18;;;23.30;99.90;;;;;;4983686;28;20300;-89
2023/07/12 11:48:13;;;;;;;111.47;108.07;;;23.70;99.90;;;;;;5011283;28;20223;-87
2023/07/12 11:50:39;;;;;;;109.40;105.93;;;23.30;99.90;;;;;;5006896;28;20211;-87
2023/07/12 11:53:05;;;;;;;107.75;104.55;;;22.90;99.90;;;;;;5008669;28;20231;-88
2023/07/12 11:55:34;;;;;;;106.47;103.38;;;22.60;99.90;;;;;;5009499;28;20229;-86
2023/07/12 11:58:00;;;;;;;112.15;108.80;;;22.60;99.90;;;;;;5006910;28;20261;-89
2023/07/12 12:00:33;;;;;;;108.10;104.78;;;22.40;99.90;;;;;;5006252;28;20695;-86
2023/07/12 12:03:04;;;;;;;103.75;100.63;;;22.50;99.90;;;;;;5004122;28;20227;-85
2023/07/12 12:05:33;;;;;;;121.97;118.18;;;22.70;99.90;;;;;;5006671;28;21086;-87
2023/07/12 12:08:00;;;;;;;98.68;95.70;;;22.90;99.90;;;;;;4990334;28;20218;-86
2023/07/12 12:10:29;;;;;;;119.97;116.43;;;23.00;99.90;;;;;;5004479;28;20298;-88
2023/07/12 12:12:55;;;;;;;95.65;92.55;;;22.80;99.90;;;;;;5011015;28;20217;-88
2023/07/12 12:15:30;;;;;;;97.45;94.30;;;22.30;99.90;;;;;;5003844;28;20314;-87
2023/07/12 12:18:03;;;;;;;110.72;107.32;;;22.60;99.90;;;;;;5009234;28;20716;-87
2023/07/12 12:20:35;;;;;;;99.82;96.63;;;22.90;99.90;;;;;;5007533;28;20364;-88
2023/07/12 12:23:21;;;;;;;109.15;105.15;;;22.60;99.90;;;;;;5005486;28;20310;-88